Decoded Metar for KFBG (FORT BRAGG/SIMMO in NC, USA) (IATA:FBG) | Meteo·Mobile Aviation Weather
aviador You're here:

KFBG Decoded Metar

FORT BRAGG/SIMMO in NC, USA
Report Time2019-01-19 00:56:00
UTC Time2019-01-19 01:49:01
Flight Rules vfr VFR
WindCalm
Visibility9999 m
Phenomena:N/A
Clouds:N/A
CeilingNone
Temp06°C (ISA -9)
Dew Point06°C (100% RH)
AAT5.1°C
QNH1020 hPa
Density Alt-896 ft
Elevation243 ft
Report Wrong Elevation
Raw Report
KFBG 190056Z AUTO 00000KT 10SM CLR 06/06 A3011 RMK AO2 SLP200
T00620062=

Extra information for KFBG:More info

Metar Taf Metar & Taf Last 4 Metars F.Rules Stats Wind Profile Meteogram Temp Stats Airport Information Weather charts Add Link Nearby VenuesMetar ALERT Operation Metar Decoded Social comments

AIRNAV info for KFBG